createdAt,value
2019-02-19T17:00:38.918Z,3.6
2019-02-19T17:01:38.783Z,3.5
2019-02-19T17:02:38.807Z,3.5
2019-02-19T17:03:38.772Z,3.5
2019-02-19T17:04:38.774Z,3.6
2019-02-19T17:05:38.816Z,3.6
2019-02-19T17:06:38.771Z,3.6
2019-02-19T17:07:38.827Z,3.5
2019-02-19T17:08:38.809Z,3.5
2019-02-19T17:09:38.806Z,3.5
2019-02-19T17:10:38.902Z,3.5
2019-02-19T17:11:38.858Z,3.5
2019-02-19T17:12:38.835Z,3.6
2019-02-19T17:13:38.868Z,3.5
2019-02-19T17:14:38.903Z,3.5
2019-02-19T17:15:38.974Z,3.5
2019-02-19T17:16:38.874Z,3.4
2019-02-19T17:17:39.091Z,3.4
2019-02-19T17:18:38.903Z,3.4
2019-02-19T17:19:38.897Z,3.4
2019-02-19T17:20:39.191Z,3.4
2019-02-19T17:21:38.916Z,3.5
2019-02-19T17:22:38.899Z,3.4
2019-02-19T17:23:38.905Z,3.4
2019-02-19T17:24:38.957Z,3.4
2019-02-19T17:25:38.898Z,3.3
2019-02-19T17:26:38.914Z,3.3
2019-02-19T17:27:39.007Z,3.3
2019-02-19T17:28:39.031Z,3.3
2019-02-19T17:29:38.936Z,3.2
2019-02-19T17:30:38.965Z,3.3
2019-02-19T17:31:39.024Z,3.3
2019-02-19T17:32:39.080Z,3.4
2019-02-19T17:33:38.996Z,3.4
2019-02-19T17:34:39.020Z,3.4
2019-02-19T17:35:39.014Z,3.3
2019-02-19T17:36:39.032Z,3.3
2019-02-19T17:37:39.105Z,3.3
2019-02-19T17:38:39.068Z,3.3
2019-02-19T17:39:39.053Z,3.3
2019-02-19T17:40:39.046Z,3.3
2019-02-19T17:41:39.049Z,3.3
2019-02-19T17:42:39.054Z,3.2
2019-02-19T17:43:39.122Z,3.2
2019-02-19T17:44:39.072Z,3.2
2019-02-19T17:45:39.134Z,3.3
2019-02-19T17:46:39.052Z,3.2
2019-02-19T17:47:39.073Z,3.3
2019-02-19T17:48:39.069Z,3.3
2019-02-19T17:49:39.092Z,3.4
2019-02-19T17:50:39.165Z,3.3
2019-02-19T17:51:39.137Z,3.3
2019-02-19T17:52:39.157Z,3.3
2019-02-19T17:53:39.172Z,3.2
2019-02-19T17:54:39.191Z,3.1
2019-02-19T17:55:39.230Z,3.1
2019-02-19T17:56:39.201Z,2.9
2019-02-19T17:57:39.531Z,2.9
2019-02-19T17:58:39.279Z,3
2019-02-19T17:59:39.315Z,3.1
2019-02-19T18:00:39.243Z,3.1
2019-02-19T18:01:39.285Z,3.2
2019-02-19T18:02:39.335Z,3.2
2019-02-19T18:03:39.279Z,3.2
2019-02-19T18:04:39.319Z,3.2
2019-02-19T18:05:39.273Z,3.2
2019-02-19T18:06:39.284Z,3.3
2019-02-19T18:07:39.295Z,3.3
2019-02-19T18:08:39.312Z,3.3
2019-02-19T18:09:39.353Z,3.2
2019-02-19T18:10:39.309Z,3.2
2019-02-19T18:11:39.296Z,3.1
2019-02-19T18:12:39.341Z,3.1
2019-02-19T18:13:39.429Z,3.1
2019-02-19T18:14:39.505Z,3.2
2019-02-19T18:15:39.343Z,3.2
2019-02-19T18:16:39.323Z,3.2
2019-02-19T18:17:39.332Z,3.1
2019-02-19T18:18:39.449Z,3.1
2019-02-19T18:19:39.415Z,3.1
2019-02-19T18:20:47.229Z,3
2019-02-19T18:21:39.396Z,3
2019-02-19T18:22:39.423Z,3
2019-02-19T18:23:39.422Z,3
2019-02-19T18:24:39.494Z,3
2019-02-19T18:25:39.480Z,3
2019-02-19T18:26:44.835Z,3
2019-02-19T18:27:39.495Z,3
2019-02-19T18:28:39.486Z,3
2019-02-19T18:29:39.511Z,3
2019-02-19T18:30:39.478Z,3
2019-02-19T18:31:39.474Z,3
2019-02-19T18:32:39.482Z,3.1
2019-02-19T18:33:39.497Z,3.1
2019-02-19T18:34:39.544Z,3.1
2019-02-19T18:35:39.531Z,3
2019-02-19T18:36:39.510Z,3
2019-02-19T18:37:39.501Z,3
2019-02-19T18:38:39.515Z,3.1
2019-02-19T18:39:39.518Z,3.1
2019-02-19T18:40:39.510Z,3.1
2019-02-19T18:41:39.533Z,3.1
2019-02-19T18:42:39.547Z,3.1
2019-02-19T18:43:39.553Z,3.1
2019-02-19T18:44:39.605Z,3.1
2019-02-19T18:45:39.586Z,3
2019-02-19T18:46:39.604Z,2.9
2019-02-19T18:47:39.608Z,3
2019-02-19T18:48:39.611Z,3
2019-02-19T18:49:39.611Z,3.1
2019-02-19T18:50:39.609Z,3.1
2019-02-19T18:51:39.664Z,3.1
2019-02-19T18:52:39.732Z,3.2
2019-02-19T18:53:39.637Z,3.2
2019-02-19T18:54:39.665Z,3.2
2019-02-19T18:55:39.646Z,3.3
2019-02-19T18:56:39.670Z,3.2
2019-02-19T18:57:39.707Z,3.1
2019-02-19T18:58:39.691Z,3.2
2019-02-19T18:59:39.672Z,3.2
2019-02-19T19:00:39.713Z,3.2
2019-02-19T19:01:39.667Z,3.1
2019-02-19T19:02:39.683Z,3.1
2019-02-19T19:03:39.705Z,3.2
2019-02-19T19:04:39.728Z,3.2
2019-02-19T19:05:39.764Z,3.2
2019-02-19T19:06:39.736Z,3.2
2019-02-19T19:07:39.756Z,3.2
2019-02-19T19:08:39.791Z,3.2
2019-02-19T19:09:39.804Z,3.2
2019-02-19T19:10:39.820Z,3.1
2019-02-19T19:11:39.787Z,3.1
2019-02-19T19:12:39.802Z,3
2019-02-19T19:13:39.811Z,3.1
2019-02-19T19:14:39.818Z,3
2019-02-19T19:15:39.847Z,3.1
2019-02-19T19:16:39.880Z,3
2019-02-19T19:17:39.905Z,3
2019-02-19T19:18:39.879Z,3
2019-02-19T19:19:39.883Z,3
2019-02-19T19:20:39.897Z,3
2019-02-19T19:21:39.874Z,2.9
2019-02-19T19:22:39.900Z,2.8
2019-02-19T19:23:39.887Z,2.9
2019-02-19T19:24:39.886Z,2.9
2019-02-19T19:25:39.903Z,2.8
2019-02-19T19:26:39.910Z,2.8
2019-02-19T19:27:39.961Z,2.8
2019-02-19T19:28:39.902Z,2.8
2019-02-19T19:29:40.170Z,3
2019-02-19T19:30:39.939Z,2.8
2019-02-19T19:31:40.031Z,2.8
2019-02-19T19:32:39.986Z,2.8
2019-02-19T19:33:40.008Z,2.8
2019-02-19T19:34:39.997Z,2.8
2019-02-19T19:35:40.126Z,2.8
2019-02-19T19:36:40.078Z,2.8
2019-02-19T19:37:40.001Z,2.8
2019-02-19T19:38:45.038Z,2.8
2019-02-19T19:39:40.098Z,2.8
2019-02-19T19:40:40.051Z,2.9
2019-02-19T19:41:40.181Z,2.8
2019-02-19T19:42:40.082Z,2.8
2019-02-19T19:43:40.073Z,2.8
2019-02-19T19:44:40.110Z,2.7
2019-02-19T19:45:40.097Z,2.7
2019-02-19T19:46:40.099Z,2.8
2019-02-19T19:47:40.106Z,2.8
2019-02-19T19:48:40.101Z,2.7
2019-02-19T19:49:40.104Z,2.8
2019-02-19T19:50:40.134Z,2.7
2019-02-19T19:51:40.132Z,2.7
2019-02-19T19:52:40.124Z,2.7
2019-02-19T19:53:40.118Z,2.7
2019-02-19T19:54:40.115Z,2.7
2019-02-19T19:55:40.122Z,2.8
2019-02-19T19:56:40.173Z,2.7
2019-02-19T19:57:40.195Z,2.8
2019-02-19T19:58:40.190Z,2.8
2019-02-19T19:59:40.185Z,2.7
2019-02-19T20:00:40.197Z,2.6
2019-02-19T20:01:40.197Z,2.7
2019-02-19T20:02:40.228Z,2.7
2019-02-19T20:03:40.292Z,2.7
2019-02-19T20:04:40.225Z,2.7
2019-02-19T20:05:40.240Z,2.6
2019-02-19T20:06:40.248Z,2.7
2019-02-19T20:07:40.498Z,2.8
2019-02-19T20:08:40.304Z,2.6
2019-02-19T20:09:40.295Z,2.6
2019-02-19T20:10:40.293Z,2.5
2019-02-19T20:11:40.292Z,2.5
2019-02-19T20:12:40.288Z,2.5
2019-02-19T20:13:40.334Z,2.6
2019-02-19T20:14:40.327Z,2.6
2019-02-19T20:15:40.326Z,2.7
2019-02-19T20:16:40.330Z,2.7
2019-02-19T20:17:40.313Z,2.6
2019-02-19T20:18:40.311Z,2.5
2019-02-19T20:19:40.355Z,2.5
2019-02-19T20:20:40.445Z,2.3
2019-02-19T20:21:40.396Z,2.5
2019-02-19T20:22:40.353Z,2.5
2019-02-19T20:23:40.365Z,2.5
2019-02-19T20:24:40.363Z,2.5
2019-02-19T20:25:40.440Z,2.6
2019-02-19T20:26:40.420Z,2.5
2019-02-19T20:27:40.395Z,2.4
2019-02-19T20:28:40.407Z,2.3
2019-02-19T20:29:40.398Z,2.2
2019-02-19T20:30:45.434Z,2.3
2019-02-19T20:31:40.466Z,2.3
2019-02-19T20:32:40.429Z,2.4
2019-02-19T20:33:40.456Z,2.4
2019-02-19T20:34:40.452Z,2.3
2019-02-19T20:35:40.494Z,2.3
2019-02-19T20:36:40.524Z,2.1
2019-02-19T20:37:40.507Z,2.3
2019-02-19T20:38:40.459Z,2.3
2019-02-19T20:39:40.490Z,2.2
2019-02-19T20:40:40.517Z,2.2
2019-02-19T20:41:40.492Z,2.3
2019-02-19T20:42:40.529Z,2.2
2019-02-19T20:43:40.495Z,2.3
2019-02-19T20:44:40.535Z,2.3
2019-02-19T20:45:40.535Z,2.3
2019-02-19T20:46:40.522Z,2.2
2019-02-19T20:47:40.520Z,2.3
2019-02-19T20:48:40.548Z,2.2
2019-02-19T20:49:40.547Z,2.1
2019-02-19T20:50:40.589Z,2.2
2019-02-19T20:51:40.522Z,2.2
2019-02-19T20:52:40.559Z,2.2
2019-02-19T20:53:40.539Z,2.2
2019-02-19T20:54:40.547Z,2.1
2019-02-19T20:55:40.590Z,2.2
2019-02-19T20:56:40.559Z,2.2
2019-02-19T20:57:40.578Z,2.1
2019-02-19T20:58:40.561Z,2.2
2019-02-19T20:59:40.585Z,2.3
2019-02-19T21:00:40.617Z,2.4
2019-02-19T21:01:40.636Z,2.3
2019-02-19T21:02:40.569Z,2.3
2019-02-19T21:03:40.599Z,2.2
2019-02-19T21:04:40.608Z,2.2
2019-02-19T21:05:40.666Z,2.2
2019-02-19T21:06:40.622Z,2.2
2019-02-19T21:07:40.601Z,2.1
2019-02-19T21:08:40.692Z,2.1
2019-02-19T21:09:43.592Z,2.1
2019-02-19T21:10:40.612Z,2.1
2019-02-19T21:11:40.605Z,2.1
2019-02-19T21:12:40.647Z,2.1
2019-02-19T21:13:40.697Z,2.1
2019-02-19T21:14:45.664Z,2.1
2019-02-19T21:15:40.612Z,2.2
2019-02-19T21:16:40.645Z,2.2
2019-02-19T21:17:40.676Z,2.3
2019-02-19T21:18:40.764Z,2.2
2019-02-19T21:19:40.694Z,2.1
2019-02-19T21:20:40.673Z,2.1
2019-02-19T21:21:44.864Z,2
2019-02-19T21:22:40.800Z,1.9
2019-02-19T21:23:40.818Z,1.9
2019-02-19T21:24:40.729Z,1.9
2019-02-19T21:25:40.697Z,2.1
2019-02-19T21:26:40.700Z,2.1
2019-02-19T21:27:40.713Z,2
2019-02-19T21:28:40.743Z,2.1
2019-02-19T21:29:40.759Z,2.1
2019-02-19T21:30:40.707Z,2.1
2019-02-19T21:31:40.712Z,2.1
2019-02-19T21:32:40.721Z,2
2019-02-19T21:33:40.778Z,2
2019-02-19T21:34:40.790Z,2.1
2019-02-19T21:35:40.981Z,2.2
2019-02-19T21:36:40.856Z,2.2
2019-02-19T21:37:40.801Z,2.2
2019-02-19T21:38:40.844Z,2.2
2019-02-19T21:39:41.019Z,2.2
2019-02-19T21:40:40.886Z,2.1
2019-02-19T21:41:40.963Z,2
2019-02-19T21:42:40.881Z,2.1
2019-02-19T21:43:40.878Z,2
2019-02-19T21:44:40.974Z,2
2019-02-19T21:45:40.952Z,2.1
2019-02-19T21:46:41.504Z,2.1
2019-02-19T21:47:40.911Z,2.1
2019-02-19T21:48:47.692Z,2.2
2019-02-19T21:49:40.976Z,2.2
2019-02-19T21:50:40.943Z,2.1
2019-02-19T21:51:40.960Z,2.2
2019-02-19T21:52:40.919Z,2
2019-02-19T21:53:41.057Z,2
2019-02-19T21:54:41.063Z,1.9
2019-02-19T21:55:40.937Z,1.9
2019-02-19T21:56:41.763Z,2
2019-02-19T21:57:45.918Z,1.9
2019-02-19T21:58:41.020Z,1.9
2019-02-19T21:59:41.067Z,1.9
2019-02-19T22:00:40.996Z,2
2019-02-19T22:01:41.024Z,1.9
2019-02-19T22:02:41.116Z,1.9
2019-02-19T22:03:41.131Z,1.8
2019-02-19T22:04:41.082Z,1.9
2019-02-19T22:05:41.078Z,1.9
2019-02-19T22:06:41.083Z,2
2019-02-19T22:07:41.125Z,1.9
2019-02-19T22:08:41.070Z,1.9
2019-02-19T22:09:41.082Z,2
2019-02-19T22:10:41.136Z,1.9
2019-02-19T22:11:41.150Z,1.9
2019-02-19T22:12:41.126Z,1.9
2019-02-19T22:13:41.114Z,2
2019-02-19T22:14:41.132Z,1.9
2019-02-19T22:15:41.147Z,1.9
2019-02-19T22:16:41.140Z,1.9
2019-02-19T22:17:41.218Z,1.7
2019-02-19T22:18:41.174Z,1.7
2019-02-19T22:19:41.153Z,1.8
2019-02-19T22:20:41.139Z,1.8
2019-02-19T22:21:41.158Z,1.9
2019-02-19T22:22:41.203Z,1.8
2019-02-19T22:23:41.202Z,1.8
2019-02-19T22:24:41.185Z,1.8
2019-02-19T22:25:41.202Z,1.8
2019-02-19T22:26:41.214Z,1.8
2019-02-19T22:27:41.263Z,1.8
2019-02-19T22:28:41.332Z,1.8
2019-02-19T22:29:41.249Z,1.8
2019-02-19T22:30:41.234Z,1.8
2019-02-19T22:31:41.249Z,1.7
2019-02-19T22:32:41.256Z,1.8
2019-02-19T22:33:41.271Z,1.8
2019-02-19T22:34:41.318Z,1.9
2019-02-19T22:35:41.314Z,1.9
2019-02-19T22:36:41.283Z,1.9
2019-02-19T22:37:41.297Z,1.9
2019-02-19T22:38:41.291Z,1.9
2019-02-19T22:39:41.300Z,1.8
2019-02-19T22:40:41.333Z,1.8
2019-02-19T22:41:41.348Z,1.8
2019-02-19T22:42:41.319Z,1.8
2019-02-19T22:43:41.343Z,1.9
2019-02-19T22:44:41.314Z,1.9
2019-02-19T22:45:41.406Z,1.8
2019-02-19T22:46:41.401Z,1.8
2019-02-19T22:47:41.593Z,1.8
2019-02-19T22:48:41.417Z,1.9
2019-02-19T22:49:41.407Z,1.8
2019-02-19T22:50:41.403Z,1.8
2019-02-19T22:51:41.450Z,1.9
2019-02-19T22:52:41.405Z,1.8
2019-02-19T22:53:41.458Z,1.8
2019-02-19T22:54:41.467Z,1.8
2019-02-19T22:55:41.467Z,1.8
2019-02-19T22:56:41.564Z,1.7
2019-02-19T22:57:41.465Z,1.8
2019-02-19T22:58:41.455Z,1.9
2019-02-19T22:59:41.484Z,1.8
2019-02-19T23:00:41.491Z,1.9
2019-02-19T23:01:41.507Z,1.8
2019-02-19T23:02:41.515Z,1.8
2019-02-19T23:03:41.522Z,1.9
2019-02-19T23:04:41.513Z,1.9
2019-02-19T23:05:41.549Z,1.9
2019-02-19T23:06:41.530Z,1.9
2019-02-19T23:07:41.568Z,1.8
2019-02-19T23:08:41.522Z,1.8
2019-02-19T23:09:41.603Z,1.8
2019-02-19T23:10:41.529Z,1.8
2019-02-19T23:11:41.573Z,1.8
2019-02-19T23:12:41.629Z,1.8
2019-02-19T23:13:41.589Z,1.8
2019-02-19T23:14:41.653Z,1.8
2019-02-19T23:15:41.628Z,1.8
2019-02-19T23:16:41.889Z,1.8
2019-02-19T23:17:41.676Z,1.8
2019-02-19T23:18:41.656Z,1.8
2019-02-19T23:19:42.945Z,1.7
2019-02-19T23:20:41.673Z,1.7
2019-02-19T23:21:41.698Z,1.7
2019-02-19T23:22:41.734Z,1.8
2019-02-19T23:23:41.698Z,1.8
2019-02-19T23:24:41.708Z,1.8
2019-02-19T23:25:41.724Z,1.7
2019-02-19T23:26:41.718Z,1.7
2019-02-19T23:27:41.914Z,1.7
2019-02-19T23:28:41.720Z,1.7
2019-02-19T23:29:41.842Z,1.7
2019-02-19T23:30:41.747Z,1.7
2019-02-19T23:31:41.755Z,1.7
2019-02-19T23:32:41.778Z,1.7
2019-02-19T23:33:41.775Z,1.8
2019-02-19T23:34:41.768Z,1.7
2019-02-19T23:35:41.975Z,1.7
2019-02-19T23:36:41.829Z,1.7
2019-02-19T23:37:41.898Z,1.6
2019-02-19T23:38:41.837Z,1.6
2019-02-19T23:39:43.705Z,1.7
2019-02-19T23:40:41.852Z,1.7
2019-02-19T23:41:41.905Z,1.6
2019-02-19T23:42:41.897Z,1.5
2019-02-19T23:43:41.910Z,1.5
2019-02-19T23:44:41.947Z,1.7
2019-02-19T23:45:41.912Z,1.7
2019-02-19T23:46:43.881Z,1.5
2019-02-19T23:47:41.940Z,1.5
2019-02-19T23:48:41.991Z,1.6
2019-02-19T23:49:41.924Z,1.5
2019-02-19T23:50:41.924Z,1.6
2019-02-19T23:51:41.913Z,1.5
2019-02-19T23:52:41.954Z,1.5
2019-02-19T23:53:41.942Z,1.4
2019-02-19T23:54:41.965Z,1.5
2019-02-19T23:55:41.953Z,1.5
2019-02-19T23:56:41.971Z,1.5
2019-02-19T23:57:42.197Z,1.6
2019-02-19T23:58:42.005Z,1.5
2019-02-19T23:59:41.955Z,1.6
